Change the Weather History Date:

Tuesday, April 15, 2014

  Actual Average Record
Temperature  
Mean Temperature 48 °F -  
Max Temperature 58 °F 59 °F - ()
Min Temperature 38 °F 44 °F - ()
Degree Days  
Heating Degree Days 17    
Moisture  
Dew Point 35 °F    
Average Humidity 58    
Maximum Humidity 81    
Minimum Humidity 26    
Precipitation  
Precipitation 0.00 in - - ()
Sea Level Pressure  
Sea Level Pressure 30.41 in    
Wind  
Wind Speed 6 mph ()    
Max Wind Speed 13 mph    
Max Gust Speed -    
Visibility 12.6 miles    
Events      
T = Trace of Precipitation, MM = Missing Value Source: Averaged Metar Reports

Daily Weather History Graph

Daily Weather History Graph

Search for Another Location

Airport or City:

Trip Planner

Search our weather history database for the weather conditions in past years. The results will help you decide how hot, cold, wet, or windy it might be!

Date:

Astronomy

Apr. 15, 2014 Rise Set
Actual Time 6:06 AM BST 7:58 PM BST
Civil Twilight 5:31 AM BST 8:33 PM BST
Nautical Twilight 4:47 AM BST 9:17 PM BST
Astronomical Twilight 3:58 AM BST 10:07 PM BST
Moon 8:27 PM BST (4/15) 6:05 AM BST (4/15)
Length of Visible Light 15h 02m
Length of Day
13h 51m
Full, 100% of the Moon is Illuminated
Apr 15
Full
Apr 22
Last Quarter
Apr 29
New
May 7
First Quarter
May 14
Full

Hourly Weather History & Observations

Time (BST) Temp. Windchill Dew Point Humidity Pressure Visibility Wind Dir Wind Speed Gust Speed Precip Events Conditions
12:00 AM 48 °F - 38 °F 58% 30.38 in 22 mi ENE 6.9 mph - -  
12:20 AM 46.4 °F 44.3 °F 39.2 °F 76% 30.36 in - ENE 4.6 mph - N/A   Clear
12:50 AM 44.6 °F 42.2 °F 35.6 °F 71% 30.39 in - NE 4.6 mph - N/A   Clear
1:00 AM 46 °F - 36 °F 58% 30.39 in 19 mi NNE 3.5 mph - -  
1:20 AM 44.6 °F 43.1 °F 35.6 °F 71% 30.39 in 6.2 mi NNE 3.5 mph - N/A   Unknown
1:50 AM 44.6 °F 42.2 °F 35.6 °F 71% 30.39 in 6.2 mi NE 4.6 mph - N/A   Unknown
2:00 AM 44 °F - 35 °F 60% 30.39 in 22 mi NNE 3.5 mph - -  
2:20 AM 44.6 °F - 35.6 °F 71% 30.39 in 6.2 mi North 2.3 mph - N/A   Unknown
2:50 AM 42.8 °F 41.1 °F 33.8 °F 70% 30.39 in - North 3.5 mph - N/A   Clear
3:00 AM 43 °F - 34 °F 60% 30.40 in 19 mi North 3.5 mph - -  
3:20 AM 42.8 °F 41.1 °F 33.8 °F 70% 30.39 in - North 3.5 mph - N/A   Clear
3:50 AM 41.0 °F 38.0 °F 33.8 °F 76% 30.39 in - North 4.6 mph - N/A   Clear
4:00 AM 41 °F - 33 °F 64% 30.40 in 25 mi North 4.6 mph - -  
4:20 AM 41.0 °F 39.0 °F 33.8 °F 76% 30.39 in - North 3.5 mph - N/A   Clear
4:50 AM 41.0 °F 38.0 °F 33.8 °F 76% 30.39 in - North 4.6 mph - N/A   Clear
5:00 AM 40 °F - 33 °F 69% 30.42 in 16 mi North 4.6 mph - -  
5:20 AM 39.2 °F 35.9 °F 33.8 °F 81% 30.42 in - North 4.6 mph - N/A   Clear
5:50 AM 39.2 °F 37.0 °F 33.8 °F 81% 30.42 in - North 3.5 mph - N/A   Clear
6:00 AM 39 °F - 33 °F 70% 30.42 in 17 mi NNE 4.6 mph - -  
6:20 AM 39.2 °F 35.9 °F 33.8 °F 81% 30.42 in - NE 4.6 mph - N/A   Clear
6:50 AM 41.0 °F 39.0 °F 33.8 °F 76% 30.42 in - NE 3.5 mph - N/A   Clear
7:00 AM 40 °F - 33 °F 69% 30.43 in 17 mi NE 4.6 mph - -  
7:20 AM 42.8 °F 39.3 °F 35.6 °F 76% 30.42 in - NE 5.8 mph - N/A   Clear
7:50 AM 44.6 °F 42.2 °F 35.6 °F 71% 30.42 in - NE 4.6 mph - N/A   Clear
8:00 AM 45 °F - 35 °F 59% 30.44 in 19 mi NE 5.8 mph - -  
8:20 AM 46.4 °F 42.9 °F 37.4 °F 71% 30.42 in - ENE 6.9 mph - N/A   Clear
8:50 AM 46.4 °F 42.9 °F 37.4 °F 71% 30.42 in - NE 6.9 mph - N/A   Clear
9:00 AM 47 °F - 35 °F 52% 30.44 in 17 mi NE 9.2 mph - -  
9:20 AM 48.2 °F - 37.4 °F 66% 30.45 in - ENE 10.4 mph - N/A   Clear
9:50 AM 50.0 °F - 35.6 °F 58% 30.45 in - ENE 9.2 mph - N/A   Clear
10:00 AM 50 °F - 35 °F 44% 30.45 in 22 mi ENE 10.4 mph - -  
10:20 AM 50.0 °F - 35.6 °F 58% 30.45 in 6.2 mi ENE 8.1 mph - N/A   Partly Cloudy
10:50 AM 51.8 °F - 37.4 °F 58% 30.45 in 6.2 mi East 8.1 mph - N/A   Partly Cloudy
11:00 AM 52 °F - 35 °F 40% 30.45 in 19 mi East 6.9 mph - -  
11:20 AM 51.8 °F - 35.6 °F 54% 30.45 in 6.2 mi East 6.9 mph - N/A   Partly Cloudy
11:50 AM 53.6 °F - 37.4 °F 54% 30.45 in 6.2 mi East 6.9 mph - N/A   Partly Cloudy
12:00 PM 53 °F - 33 °F 34% 30.45 in 22 mi ENE 6.9 mph - -  
12:20 PM 53.6 °F - 35.6 °F 51% 30.45 in 6.2 mi NE 5.8 mph - N/A   Partly Cloudy
12:50 PM 55.4 °F - 35.6 °F 47% 30.45 in 6.2 mi ENE 4.6 mph - N/A   Partly Cloudy
1:00 PM 56 °F - 36 °F 35% 30.45 in 22 mi East 8.1 mph - -  
1:20 PM 55.4 °F - 33.8 °F 44% 30.45 in 6.2 mi East 5.8 mph - N/A   Partly Cloudy
1:50 PM 57.2 °F - 33.8 °F 41% 30.42 in - East 9.2 mph - N/A   Clear
2:00 PM 57 °F - 36 °F 33% 30.43 in 25 mi East 5.8 mph - -  
2:20 PM 57.2 °F - 33.8 °F 41% 30.42 in 6.2 mi ENE 8.1 mph - N/A   Partly Cloudy
2:50 PM 57.2 °F - 33.8 °F 41% 30.42 in - East 10.4 mph - N/A   Clear
3:00 PM 57 °F - 33 °F 28% 30.43 in 22 mi ENE 9.2 mph - -  
3:20 PM 57.2 °F - 33.8 °F 41% 30.42 in - East 11.5 mph - N/A   Clear
3:50 PM 57.2 °F - 33.8 °F 41% 30.42 in - East 10.4 mph - N/A   Clear
4:00 PM 58 °F - 33 °F 27% 30.41 in 28 mi East 9.2 mph - -  
4:20 PM 57.2 °F - 33.8 °F 41% 30.39 in - East 9.2 mph - N/A   Clear
4:50 PM 57.2 °F - 32.0 °F 38% 30.39 in - East 8.1 mph - N/A   Clear
5:00 PM 58 °F - 33 °F 26% 30.40 in 31 mi East 9.2 mph - -  
5:20 PM 57.2 °F - 32.0 °F 38% 30.39 in - East 6.9 mph - N/A   Clear
5:50 PM 57.2 °F - 35.6 °F 44% 30.39 in - ENE 6.9 mph - N/A   Clear
6:00 PM 57 °F - 33 °F 27% 30.39 in 22 mi ENE 6.9 mph - -  
6:50 PM 53.6 °F - 37.4 °F 54% 30.39 in - East 12.7 mph - N/A   Clear
7:00 PM 54 °F - 36 °F 39% 30.39 in 19 mi East 12.7 mph - -  
7:20 PM 51.8 °F - 37.4 °F 58% 30.39 in - East 12.7 mph - N/A   Clear
7:50 PM 50.0 °F - 37.4 °F 62% 30.39 in - East 10.4 mph - N/A   Clear
8:00 PM 50 °F - 36 °F 47% 30.40 in 19 mi East 11.5 mph - -  
8:20 PM 48.2 °F - 37.4 °F 66% 30.39 in - East 11.5 mph - N/A   Clear
8:50 PM 48.2 °F - 37.4 °F 66% 30.39 in - ESE 10.4 mph - N/A   Clear
9:00 PM 48 °F - 35 °F 51% 30.40 in 19 mi East 12.7 mph - -  
9:20 PM 46.4 °F 41.1 °F 35.6 °F 66% 30.42 in - ESE 11.5 mph - N/A   Clear
9:50 PM 44.6 °F 38.4 °F 35.6 °F 71% 30.42 in - East 12.7 mph - N/A   Clear
10:00 PM 46 °F - 35 °F 55% 30.41 in 19 mi East 12.7 mph - -  
10:20 PM 44.6 °F 39.2 °F 35.6 °F 71% 30.42 in - East 10.4 mph - N/A   Clear
10:50 PM 42.8 °F 37.5 °F 35.6 °F 76% 30.42 in - ESE 9.2 mph - N/A   Clear
11:00 PM 44 °F - 35 °F 61% 30.42 in 14 mi East 9.2 mph - -  
11:20 PM 41.0 °F 35.8 °F 35.6 °F 81% 30.42 in - ESE 8.1 mph - N/A   Clear
11:50 PM 41.0 °F 36.4 °F 35.6 °F 81% 30.42 in - ESE 6.9 mph - N/A   Clear